createdAt,value
2023-04-01T00:01:50.047Z,4.38
2023-04-01T00:04:39.050Z,4.95
2023-04-01T00:07:26.039Z,5.25
2023-04-01T00:10:09.691Z,5.07
2023-04-01T00:13:02.460Z,5.10
2023-04-01T00:15:57.769Z,5.55
2023-04-01T00:18:40.640Z,5.38
2023-04-01T00:21:24.010Z,4.53
2023-04-01T00:24:07.703Z,4.97
2023-04-01T00:26:48.522Z,5.30
2023-04-01T00:29:38.754Z,6.15
2023-04-01T00:32:16.466Z,5.22
2023-04-01T00:35:02.513Z,5.78
2023-04-01T00:37:34.375Z,5.32
2023-04-01T00:40:29.432Z,5.30
2023-04-01T00:43:07.159Z,5.28
2023-04-01T00:45:45.241Z,4.55
2023-04-01T00:48:27.453Z,5.68
2023-04-01T00:51:18.712Z,5.75
2023-04-01T00:54:00.035Z,5.50
2023-04-01T00:56:47.853Z,4.90
2023-04-01T00:59:32.012Z,5.35
2023-04-01T01:02:33.101Z,4.70
2023-04-01T01:05:07.480Z,5.65
2023-04-01T01:07:55.628Z,5.60
2023-04-01T01:10:37.664Z,5.70
2023-04-01T01:13:30.180Z,6.85
2023-04-01T01:16:14.390Z,7.15
2023-04-01T01:19:08.836Z,6.65
2023-04-01T01:22:16.494Z,5.60
2023-04-01T01:25:09.344Z,5.22
2023-04-01T01:27:55.209Z,5.72
2023-04-01T01:30:54.798Z,4.85
2023-04-01T01:33:48.780Z,5.68
2023-04-01T01:36:38.302Z,5.97
2023-04-01T01:39:22.345Z,6.05
2023-04-01T01:42:11.796Z,5.72
2023-04-01T01:44:48.656Z,5.40
2023-04-01T01:47:24.853Z,5.22
2023-04-01T01:50:13.163Z,4.95
2023-04-01T01:53:03.620Z,5.30
2023-04-01T01:55:53.793Z,6.20
2023-04-01T01:58:46.572Z,5.28
2023-04-01T02:01:34.905Z,5.72
2023-04-01T02:04:41.511Z,6.28
2023-04-01T02:07:27.543Z,6.50
2023-04-01T02:10:04.808Z,6.10
2023-04-01T02:12:54.649Z,6.20
2023-04-01T02:15:44.195Z,5.28
2023-04-01T02:18:30.289Z,5.00
2023-04-01T02:21:16.200Z,4.82
2023-04-01T02:23:55.886Z,4.53
2023-04-01T02:26:44.132Z,4.82
2023-04-01T02:29:35.535Z,5.20
2023-04-01T02:32:22.678Z,5.03
2023-04-01T02:35:06.997Z,5.25
2023-04-01T02:37:53.939Z,5.07
2023-04-01T02:40:36.768Z,5.80
2023-04-01T02:43:10.367Z,5.15
2023-04-01T02:45:45.465Z,5.78
2023-04-01T02:48:25.026Z,5.50
2023-04-01T02:51:04.870Z,5.53
2023-04-01T02:53:47.485Z,4.80
2023-04-01T02:56:32.978Z,4.85
2023-04-01T02:59:09.798Z,5.25
2023-04-01T03:01:49.081Z,5.25
2023-04-01T03:04:36.271Z,5.10
2023-04-01T03:07:19.497Z,4.93
2023-04-01T03:09:56.193Z,5.25
2023-04-01T03:12:36.128Z,4.80
2023-04-01T03:15:16.810Z,5.35
2023-04-01T03:20:39.563Z,5.15
2023-04-01T03:23:22.053Z,5.82
2023-04-01T03:26:05.422Z,4.88
2023-04-01T03:28:39.456Z,4.90
2023-04-01T03:31:22.288Z,4.90
2023-04-01T03:34:10.409Z,5.80
2023-04-01T03:36:48.510Z,5.40
2023-04-01T03:39:21.669Z,4.35
2023-04-01T03:41:58.340Z,5.00
2023-04-01T03:44:37.061Z,5.25
2023-04-01T03:47:25.622Z,4.88
2023-04-01T03:50:09.226Z,5.30
2023-04-01T03:55:36.448Z,4.85
2023-04-01T03:58:23.307Z,5.28
2023-04-01T04:01:07.398Z,5.93
2023-04-01T04:03:56.913Z,4.75
2023-04-01T04:06:38.538Z,6.10
2023-04-01T04:09:09.381Z,5.03
2023-04-01T04:11:44.254Z,5.32
2023-04-01T04:14:26.611Z,5.55
2023-04-01T04:17:01.322Z,5.22
2023-04-01T04:19:41.800Z,4.85
2023-04-01T04:22:17.256Z,6.28
2023-04-01T04:24:59.766Z,4.53
2023-04-01T04:27:41.596Z,5.93
2023-04-01T04:30:18.273Z,5.22
2023-04-01T04:33:07.371Z,4.45
2023-04-01T04:35:48.337Z,4.70
2023-04-01T04:38:26.248Z,6.88
2023-04-01T04:41:02.782Z,15.60
2023-04-01T04:43:42.648Z,18.00
2023-04-01T04:46:24.129Z,17.85
2023-04-01T04:49:18.382Z,10.07
2023-04-01T04:51:57.576Z,7.25
2023-04-01T04:54:41.984Z,5.85
2023-04-01T04:57:22.150Z,5.90
2023-04-01T05:00:13.738Z,5.68
2023-04-01T05:03:02.429Z,5.28
2023-04-01T05:05:47.277Z,5.95
2023-04-01T05:08:28.894Z,6.25
2023-04-01T05:11:09.804Z,6.72
2023-04-01T05:13:46.389Z,7.60
2023-04-01T05:16:23.467Z,7.60
2023-04-01T05:19:09.388Z,6.60
2023-04-01T05:21:55.170Z,7.70
2023-04-01T05:24:57.938Z,7.38
2023-04-01T05:27:34.181Z,6.85
2023-04-01T05:30:17.822Z,6.60
2023-04-01T05:33:18.821Z,6.90
2023-04-01T05:35:55.275Z,5.72
2023-04-01T05:38:32.026Z,5.43
2023-04-01T05:41:10.640Z,4.97
2023-04-01T05:43:55.217Z,5.63
2023-04-01T05:46:55.579Z,5.28
2023-04-01T05:52:20.325Z,4.32
2023-04-01T05:55:04.113Z,3.90
2023-04-01T05:57:50.948Z,4.30
2023-04-01T06:00:35.732Z,4.68
2023-04-01T06:03:10.974Z,4.82
2023-04-01T06:06:05.606Z,4.47
2023-04-01T06:08:51.290Z,5.88
2023-04-01T06:11:35.944Z,5.20
2023-04-01T06:14:46.110Z,4.68
2023-04-01T06:17:52.747Z,5.03
2023-04-01T06:20:51.197Z,5.00
2023-04-01T06:23:43.210Z,5.47
2023-04-01T06:26:39.553Z,5.07
2023-04-01T06:29:43.766Z,5.18
2023-04-01T06:32:46.841Z,5.78
2023-04-01T06:36:10.691Z,6.95
2023-04-01T06:39:11.230Z,5.97
2023-04-01T06:42:25.013Z,6.15
2023-04-01T06:45:24.622Z,7.07
2023-04-01T06:48:34.489Z,6.40
2023-04-01T06:51:50.918Z,5.50
2023-04-01T06:55:18.703Z,6.40
2023-04-01T06:58:33.205Z,7.15
2023-04-01T07:01:16.384Z,6.13
2023-04-01T07:04:04.085Z,6.30
2023-04-01T07:07:05.539Z,6.82
2023-04-01T07:10:04.017Z,6.28
2023-04-01T07:12:53.870Z,5.47
2023-04-01T07:16:27.516Z,6.95
2023-04-01T07:19:23.955Z,6.97
2023-04-01T07:22:24.137Z,7.03
2023-04-01T07:25:23.190Z,11.00
2023-04-01T07:28:26.953Z,7.65
2023-04-01T07:31:32.675Z,6.93
2023-04-01T07:34:30.168Z,6.97
2023-04-01T07:37:12.449Z,7.43
2023-04-01T07:40:01.038Z,7.55
2023-04-01T07:42:57.053Z,7.35
2023-04-01T07:45:45.669Z,8.80
2023-04-01T07:48:43.716Z,8.95
2023-04-01T07:51:26.684Z,8.60
2023-04-01T07:54:12.443Z,9.02
2023-04-01T07:57:23.294Z,8.00
2023-04-01T08:00:22.023Z,9.43
2023-04-01T08:03:25.064Z,8.98
2023-04-01T08:06:20.955Z,8.32
2023-04-01T08:09:15.833Z,9.18
2023-04-01T08:12:39.032Z,8.60
2023-04-01T08:15:54.388Z,8.73
2023-04-01T08:19:07.787Z,9.30
2023-04-01T08:22:00.143Z,7.05
2023-04-01T08:24:47.169Z,8.60
2023-04-01T08:27:45.121Z,7.82
2023-04-01T08:30:37.133Z,7.53
2023-04-01T08:33:26.168Z,9.15
2023-04-01T08:36:12.315Z,9.68
2023-04-01T08:39:00.153Z,9.02
2023-04-01T08:42:10.207Z,8.43
2023-04-01T08:45:40.351Z,7.25
2023-04-01T08:49:01.108Z,9.68
2023-04-01T08:51:59.132Z,8.93
2023-04-01T08:55:17.582Z,11.82
2023-04-01T08:59:03.746Z,16.40
2023-04-01T09:02:34.428Z,9.18
2023-04-01T09:05:50.914Z,11.27
2023-04-01T09:08:47.000Z,13.85
2023-04-01T09:11:47.938Z,12.77
2023-04-01T09:14:58.903Z,11.13
2023-04-01T09:18:34.687Z,7.45
2023-04-01T09:21:53.083Z,8.27
2023-04-01T09:24:49.098Z,6.50
2023-04-01T09:27:52.226Z,5.95
2023-04-01T09:31:06.228Z,8.98
2023-04-01T09:34:58.952Z,7.90
2023-04-01T09:37:49.090Z,7.30
2023-04-01T09:40:59.622Z,10.50
2023-04-01T09:44:05.907Z,10.25
2023-04-01T09:47:04.802Z,7.65
2023-04-01T09:50:34.911Z,6.22
2023-04-01T09:53:31.166Z,4.40
2023-04-01T09:56:43.854Z,4.45
2023-04-01T10:00:03.384Z,6.38
2023-04-01T10:03:35.267Z,10.40
2023-04-01T10:06:44.078Z,7.53
2023-04-01T10:10:00.315Z,8.27
2023-04-01T10:13:05.611Z,6.10
2023-04-01T10:16:07.243Z,7.00
2023-04-01T10:19:07.508Z,5.75
2023-04-01T10:22:26.091Z,7.85
2023-04-01T10:25:22.720Z,6.85
2023-04-01T10:28:42.733Z,6.50
2023-04-01T10:32:44.626Z,6.38
2023-04-01T10:35:59.294Z,4.80
2023-04-01T10:39:22.563Z,6.22
2023-04-01T10:42:52.750Z,5.15
2023-04-01T10:50:14.980Z,10.57
2023-04-01T10:53:43.906Z,7.78
2023-04-01T10:56:54.338Z,6.40
2023-04-01T11:00:15.109Z,7.70
2023-04-01T11:04:02.078Z,7.00
2023-04-01T11:07:41.380Z,6.13
2023-04-01T11:10:57.186Z,7.35
2023-04-01T11:14:14.277Z,7.50
2023-04-01T11:17:33.438Z,7.93
2023-04-01T11:20:54.341Z,5.97
2023-04-01T11:24:05.584Z,6.47
2023-04-01T11:27:14.857Z,5.97
2023-04-01T11:30:31.895Z,6.15
2023-04-01T11:33:27.770Z,8.63
2023-04-01T11:36:32.003Z,4.90
2023-04-01T11:39:46.425Z,5.35
2023-04-01T11:42:53.619Z,3.92
2023-04-01T11:46:00.756Z,3.83
2023-04-01T11:48:56.799Z,5.63
2023-04-01T11:52:02.492Z,4.63
2023-04-01T11:55:03.089Z,5.47
2023-04-01T11:58:13.521Z,5.90
2023-04-01T12:01:23.252Z,5.22
2023-04-01T12:04:25.894Z,5.38
2023-04-01T12:07:13.514Z,5.85
2023-04-01T12:09:58.045Z,5.78
2023-04-01T12:12:59.965Z,6.60
2023-04-01T12:15:47.073Z,7.85
2023-04-01T12:18:45.807Z,10.70
2023-04-01T12:21:37.330Z,7.55
2023-04-01T12:24:51.998Z,5.68
2023-04-01T12:28:02.950Z,6.03
2023-04-01T12:31:06.396Z,5.75
2023-04-01T12:34:05.959Z,6.97
2023-04-01T12:37:13.172Z,6.38
2023-04-01T12:40:44.203Z,5.45
2023-04-01T12:44:00.834Z,5.38
2023-04-01T12:46:51.484Z,4.68
2023-04-01T12:50:05.319Z,5.22
2023-04-01T12:53:10.960Z,4.65
2023-04-01T12:56:00.642Z,4.25
2023-04-01T12:59:06.766Z,4.15
2023-04-01T13:02:11.192Z,3.55
2023-04-01T13:05:27.459Z,3.72
2023-04-01T13:08:31.521Z,5.45
2023-04-01T13:11:22.877Z,5.05
2023-04-01T13:14:34.491Z,6.63
2023-04-01T13:17:26.579Z,9.50
2023-04-01T13:20:14.337Z,7.22
2023-04-01T13:23:12.164Z,7.15
2023-04-01T13:26:13.021Z,9.63
2023-04-01T13:32:01.449Z,8.60
2023-04-01T13:35:00.812Z,6.80
2023-04-01T13:37:54.250Z,5.73
2023-04-01T13:41:02.204Z,5.15
2023-04-01T13:43:44.281Z,6.85
2023-04-01T13:46:56.049Z,6.28
2023-04-01T13:50:04.658Z,5.47
2023-04-01T13:53:30.773Z,8.80
2023-04-01T13:56:28.967Z,7.32
2023-04-01T13:59:33.199Z,7.35
2023-04-01T14:05:11.750Z,6.70
2023-04-01T14:08:09.247Z,7.85
2023-04-01T14:11:08.084Z,7.32
2023-04-01T14:13:49.983Z,7.03
2023-04-01T14:16:55.743Z,6.85
2023-04-01T14:19:59.640Z,6.57
2023-04-01T14:22:54.429Z,8.32
2023-04-01T14:25:55.591Z,5.65
2023-04-01T14:28:48.176Z,6.03
2023-04-01T14:32:00.389Z,5.72
2023-04-01T14:35:04.169Z,6.32
2023-04-01T14:38:37.962Z,5.47
2023-04-01T14:41:28.152Z,6.00
2023-04-01T14:44:43.536Z,6.18
2023-04-01T14:47:44.128Z,5.43
2023-04-01T14:53:32.510Z,4.65
2023-04-01T14:56:09.516Z,4.63
2023-04-01T14:58:54.661Z,4.90
2023-04-01T15:01:52.044Z,4.25
2023-04-01T15:04:52.892Z,4.18
2023-04-01T15:07:58.541Z,3.53
2023-04-01T15:10:57.100Z,3.78
2023-04-01T15:14:09.260Z,3.30
2023-04-01T15:16:59.428Z,3.45
2023-04-01T15:22:48.013Z,3.38
2023-04-01T15:25:35.784Z,2.70
2023-04-01T15:28:28.332Z,3.20
2023-04-01T15:31:16.972Z,4.72
2023-04-01T15:34:24.647Z,4.95
2023-04-01T15:37:20.035Z,4.03
2023-04-01T15:40:06.333Z,5.63
2023-04-01T15:42:57.993Z,5.85
2023-04-01T15:45:51.269Z,4.85
2023-04-01T15:48:55.795Z,4.80
2023-04-01T15:52:05.688Z,3.97
2023-04-01T15:55:02.726Z,5.28
2023-04-01T15:57:56.032Z,5.00
2023-04-01T16:00:39.089Z,5.90
2023-04-01T16:03:49.089Z,8.27
2023-04-01T16:06:51.667Z,8.32
2023-04-01T16:10:12.342Z,6.05
2023-04-01T16:13:28.998Z,5.70
2023-04-01T16:16:20.353Z,5.88
2023-04-01T16:19:38.620Z,7.00
2023-04-01T16:22:28.643Z,6.55
2023-04-01T16:25:30.066Z,5.10
2023-04-01T16:28:26.643Z,5.70
2023-04-01T16:31:18.233Z,5.60
2023-04-01T16:34:04.838Z,6.70
2023-04-01T16:36:49.706Z,6.68
2023-04-01T16:39:58.134Z,6.68
2023-04-01T16:45:45.708Z,8.77
2023-04-01T16:48:31.594Z,8.82
2023-04-01T16:51:24.371Z,7.05
2023-04-01T16:54:10.772Z,7.32
2023-04-01T16:56:54.879Z,7.78
2023-04-01T16:59:47.111Z,6.85
2023-04-01T17:02:25.767Z,7.03
2023-04-01T17:05:08.672Z,7.60
2023-04-01T17:08:03.281Z,7.55
2023-04-01T17:11:05.772Z,8.43
2023-04-01T17:13:49.898Z,6.28
2023-04-01T17:17:00.327Z,5.40
2023-04-01T17:20:12.820Z,6.03
2023-04-01T17:22:57.269Z,5.32
2023-04-01T17:26:01.946Z,5.57
2023-04-01T17:28:53.365Z,7.38
2023-04-01T17:32:11.712Z,7.55
2023-04-01T17:35:02.105Z,7.45
2023-04-01T17:37:53.897Z,8.93
2023-04-01T17:41:02.571Z,7.60
2023-04-01T17:44:15.731Z,6.53
2023-04-01T17:47:19.325Z,5.93
2023-04-01T17:50:05.511Z,4.35
2023-04-01T17:52:56.907Z,5.30
2023-04-01T17:56:01.358Z,4.88
2023-04-01T17:58:45.870Z,6.47
2023-04-01T18:01:32.385Z,6.85
2023-04-01T18:04:48.718Z,6.00
2023-04-01T18:07:43.251Z,5.55
2023-04-01T18:10:40.922Z,6.07
2023-04-01T18:13:46.307Z,5.30
2023-04-01T18:16:40.463Z,5.60
2023-04-01T18:19:34.929Z,6.30
2023-04-01T18:22:20.762Z,7.28
2023-04-01T18:25:10.417Z,6.93
2023-04-01T18:27:56.823Z,16.25
2023-04-01T18:30:39.307Z,13.18
2023-04-01T18:33:24.650Z,10.23
2023-04-01T18:36:15.405Z,9.05
2023-04-01T18:39:11.037Z,6.85
2023-04-01T18:42:06.871Z,6.88
2023-04-01T18:44:59.551Z,6.07
2023-04-01T18:47:50.406Z,5.32
2023-04-01T18:50:47.119Z,5.53
2023-04-01T18:53:39.169Z,6.85
2023-04-01T18:56:42.903Z,4.53
2023-04-01T18:59:44.436Z,5.40
2023-04-01T19:02:33.077Z,5.20
2023-04-01T19:05:20.636Z,7.80
2023-04-01T19:08:04.910Z,9.73
2023-04-01T19:10:52.426Z,8.98
2023-04-01T19:13:48.866Z,7.97
2023-04-01T19:16:46.603Z,6.97
2023-04-01T19:19:54.561Z,6.93
2023-04-01T19:22:50.885Z,7.07
2023-04-01T19:25:57.037Z,8.38
2023-04-01T19:28:48.185Z,9.45
2023-04-01T19:31:43.003Z,9.73
2023-04-01T19:34:33.667Z,9.90
2023-04-01T19:37:30.008Z,9.50
2023-04-01T19:40:30.075Z,11.13
2023-04-01T19:43:23.463Z,12.40
2023-04-01T19:46:09.940Z,12.60
2023-04-01T19:49:12.728Z,12.68
2023-04-01T19:51:56.536Z,11.18
2023-04-01T19:55:06.994Z,11.95
2023-04-01T19:58:03.170Z,11.48
2023-04-01T20:00:48.795Z,14.13
2023-04-01T20:03:46.832Z,16.42
2023-04-01T20:06:44.732Z,14.50
2023-04-01T20:09:50.825Z,13.55
2023-04-01T20:12:36.032Z,11.65
2023-04-01T20:15:32.302Z,11.82
2023-04-01T20:18:18.635Z,12.27
2023-04-01T20:21:14.543Z,12.93
2023-04-01T20:23:59.790Z,12.68
2023-04-01T20:26:42.068Z,13.55
2023-04-01T20:32:26.784Z,11.73
2023-04-01T20:35:33.234Z,14.45
2023-04-01T20:38:36.819Z,13.98
2023-04-01T20:41:22.781Z,13.95
2023-04-01T20:44:13.850Z,12.63
2023-04-01T20:47:02.379Z,14.30
2023-04-01T20:50:31.733Z,14.77
2023-04-01T20:53:23.878Z,13.02
2023-04-01T20:56:28.264Z,14.95
2023-04-01T20:59:51.324Z,15.60
2023-04-01T21:02:47.216Z,19.13
2023-04-01T21:05:48.294Z,16.05
2023-04-01T21:08:41.463Z,13.30
2023-04-01T21:11:37.957Z,13.57
2023-04-01T21:14:44.833Z,12.98
2023-04-01T21:17:44.032Z,14.60
2023-04-01T21:20:58.953Z,12.00
2023-04-01T21:23:50.378Z,12.55
2023-04-01T21:26:51.909Z,34.17
2023-04-01T21:29:55.854Z,17.83
2023-04-01T21:33:05.878Z,14.55
2023-04-01T21:35:54.837Z,12.63
2023-04-01T21:39:00.877Z,12.88
2023-04-01T21:42:05.895Z,11.05
2023-04-01T21:45:37.490Z,14.55
2023-04-01T21:48:42.994Z,13.75
2023-04-01T21:51:48.317Z,16.35
2023-04-01T21:55:17.869Z,13.75
2023-04-01T21:58:36.468Z,12.23
2023-04-01T22:01:40.026Z,11.23
2023-04-01T22:04:37.936Z,10.65
2023-04-01T22:07:21.209Z,10.70
2023-04-01T22:10:19.859Z,9.32
2023-04-01T22:13:02.451Z,9.45
2023-04-01T22:16:00.852Z,9.45
2023-04-01T22:18:57.510Z,8.57
2023-04-01T22:21:58.393Z,8.82
2023-04-01T22:24:45.776Z,7.20
2023-04-01T22:27:31.788Z,7.50
2023-04-01T22:30:24.485Z,7.03
2023-04-01T22:33:13.839Z,5.93
2023-04-01T22:36:10.825Z,6.35
2023-04-01T22:39:07.315Z,6.55
2023-04-01T22:42:14.575Z,5.80
2023-04-01T22:45:02.603Z,5.60
2023-04-01T22:47:49.015Z,5.28
2023-04-01T22:50:39.862Z,5.22
2023-04-01T22:53:36.753Z,5.20
2023-04-01T22:56:34.333Z,4.38
2023-04-01T22:59:25.658Z,5.07
2023-04-01T23:02:05.779Z,3.95
2023-04-01T23:04:49.626Z,3.50
2023-04-01T23:07:59.190Z,3.83
2023-04-01T23:10:50.144Z,4.30
2023-04-01T23:13:41.471Z,6.68
2023-04-01T23:16:20.279Z,5.40
2023-04-01T23:19:10.474Z,6.22
2023-04-01T23:21:49.454Z,7.20
2023-04-01T23:24:35.925Z,7.72
2023-04-01T23:27:28.967Z,8.70
2023-04-01T23:30:04.972Z,8.48
2023-04-01T23:32:38.210Z,10.10
2023-04-01T23:35:32.544Z,8.63
2023-04-01T23:38:13.652Z,8.85
2023-04-01T23:40:53.712Z,8.57
2023-04-01T23:43:39.764Z,8.45
2023-04-01T23:46:20.001Z,7.53
2023-04-01T23:48:54.577Z,6.50
2023-04-01T23:51:44.518Z,6.40
2023-04-01T23:54:25.528Z,6.53
2023-04-01T23:57:09.712Z,6.45
